sensor_id;sensor_type;location;lat;lon;timestamp;P1;durP1;ratioP1;P2;durP2;ratioP2
18200;SDS011;9226;47.858;9.594;2022-07-29T07:50:18;2.73;;;2.07;;
18200;SDS011;9226;47.858;9.594;2022-07-29T07:52:49;4.57;;;2.13;;
18200;SDS011;9226;47.858;9.594;2022-07-29T07:55:17;6.33;;;3.10;;
18200;SDS011;9226;47.858;9.594;2022-07-29T07:59:45;4.13;;;2.23;;
18200;SDS011;9226;47.858;9.594;2022-07-29T08:02:10;4.10;;;2.40;;
18200;SDS011;9226;47.858;9.594;2022-07-29T08:04:35;4.17;;;2.20;;
18200;SDS011;9226;47.858;9.594;2022-07-29T08:07:01;2.90;;;2.30;;
18200;SDS011;9226;47.858;9.594;2022-07-29T08:09:27;5.07;;;2.63;;
18200;SDS011;9226;47.858;9.594;2022-07-29T08:11:54;5.30;;;2.40;;
18200;SDS011;9226;47.858;9.594;2022-07-29T08:14:20;5.07;;;2.77;;
18200;SDS011;9226;47.858;9.594;2022-07-29T08:16:46;3.20;;;2.40;;
18200;SDS011;9226;47.858;9.594;2022-07-29T08:19:11;5.47;;;2.10;;
18200;SDS011;9226;47.858;9.594;2022-07-29T08:21:37;3.07;;;2.27;;
18200;SDS011;9226;47.858;9.594;2022-07-29T08:24:03;5.13;;;2.77;;
18200;SDS011;9226;47.858;9.594;2022-07-29T08:26:48;3.13;;;2.40;;
18200;SDS011;9226;47.858;9.594;2022-07-29T08:29:14;4.07;;;2.20;;
18200;SDS011;9226;47.858;9.594;2022-07-29T08:31:39;3.73;;;2.37;;
18200;SDS011;9226;47.858;9.594;2022-07-29T08:34:05;4.90;;;2.17;;
18200;SDS011;9226;47.858;9.594;2022-07-29T08:36:31;12.63;;;2.60;;
18200;SDS011;9226;47.858;9.594;2022-07-29T08:38:58;4.23;;;2.43;;
18200;SDS011;9226;47.858;9.594;2022-07-29T08:41:24;3.80;;;2.60;;
18200;SDS011;9226;47.858;9.594;2022-07-29T08:43:51;3.73;;;2.50;;
18200;SDS011;9226;47.858;9.594;2022-07-29T08:46:17;3.60;;;2.53;;
18200;SDS011;9226;47.858;9.594;2022-07-29T08:48:43;3.60;;;2.40;;
18200;SDS011;9226;47.858;9.594;2022-07-29T08:51:13;3.47;;;2.40;;
18200;SDS011;9226;47.858;9.594;2022-07-29T08:53:43;4.07;;;2.40;;
18200;SDS011;9226;47.858;9.594;2022-07-29T08:56:13;5.30;;;2.43;;
18200;SDS011;9226;47.858;9.594;2022-07-29T08:58:39;7.93;;;2.50;;
18200;SDS011;9226;47.858;9.594;2022-07-29T09:01:06;5.10;;;2.40;;
18200;SDS011;9226;47.858;9.594;2022-07-29T09:03:34;4.23;;;2.23;;
18200;SDS011;9226;47.858;9.594;2022-07-29T09:06:01;3.97;;;2.37;;
18200;SDS011;9226;47.858;9.594;2022-07-29T09:08:28;3.40;;;2.30;;
18200;SDS011;9226;47.858;9.594;2022-07-29T09:10:53;6.53;;;2.87;;
18200;SDS011;9226;47.858;9.594;2022-07-29T09:13:23;4.83;;;2.20;;
18200;SDS011;9226;47.858;9.594;2022-07-29T09:15:49;4.03;;;2.50;;
18200;SDS011;9226;47.858;9.594;2022-07-29T09:18:34;3.43;;;2.80;;
18200;SDS011;9226;47.858;9.594;2022-07-29T09:21:02;2.93;;;2.23;;
18200;SDS011;9226;47.858;9.594;2022-07-29T09:24:03;3.83;;;2.43;;
18200;SDS011;9226;47.858;9.594;2022-07-29T09:26:39;3.87;;;2.40;;
18200;SDS011;9226;47.858;9.594;2022-07-29T09:29:12;5.33;;;2.40;;
18200;SDS011;9226;47.858;9.594;2022-07-29T09:31:40;4.77;;;2.70;;
18200;SDS011;9226;47.858;9.594;2022-07-29T09:34:08;4.60;;;3.00;;
18200;SDS011;9226;47.858;9.594;2022-07-29T09:36:41;4.17;;;2.50;;
18200;SDS011;9226;47.858;9.594;2022-07-29T09:39:08;3.43;;;2.63;;
18200;SDS011;9226;47.858;9.594;2022-07-29T09:44:14;5.87;;;2.50;;
18200;SDS011;9226;47.858;9.594;2022-07-29T09:46:52;3.67;;;2.93;;
18200;SDS011;9226;47.858;9.594;2022-07-29T09:49:19;3.60;;;2.57;;
18200;SDS011;9226;47.858;9.594;2022-07-29T09:51:44;4.27;;;2.53;;
18200;SDS011;9226;47.858;9.594;2022-07-29T09:54:23;3.40;;;2.60;;
18200;SDS011;9226;47.858;9.594;2022-07-29T09:56:50;3.90;;;2.53;;
18200;SDS011;9226;47.858;9.594;2022-07-29T09:59:16;5.43;;;2.70;;
18200;SDS011;9226;47.858;9.594;2022-07-29T10:01:42;3.37;;;2.60;;
18200;SDS011;9226;47.858;9.594;2022-07-29T10:04:07;3.93;;;2.63;;
18200;SDS011;9226;47.858;9.594;2022-07-29T10:06:34;5.63;;;2.37;;
18200;SDS011;9226;47.858;9.594;2022-07-29T10:09:09;5.43;;;2.60;;
18200;SDS011;9226;47.858;9.594;2022-07-29T10:11:37;3.60;;;2.60;;
18200;SDS011;9226;47.858;9.594;2022-07-29T10:14:02;14.23;;;2.77;;
18200;SDS011;9226;47.858;9.594;2022-07-29T10:16:28;7.07;;;2.83;;
18200;SDS011;9226;47.858;9.594;2022-07-29T10:18:58;6.73;;;2.87;;
18200;SDS011;9226;47.858;9.594;2022-07-29T10:21:27;4.97;;;2.50;;
18200;SDS011;9226;47.858;9.594;2022-07-29T10:23:53;7.03;;;2.50;;
18200;SDS011;9226;47.858;9.594;2022-07-29T10:26:21;4.20;;;2.60;;
18200;SDS011;9226;47.858;9.594;2022-07-29T10:28:47;3.60;;;2.60;;
18200;SDS011;9226;47.858;9.594;2022-07-29T10:31:19;4.93;;;2.90;;
18200;SDS011;9226;47.858;9.594;2022-07-29T10:41:43;4.20;;;2.90;;
18200;SDS011;9226;47.858;9.594;2022-07-29T10:44:24;4.23;;;2.67;;
18200;SDS011;9226;47.858;9.594;2022-07-29T10:46:51;6.33;;;4.03;;
18200;SDS011;9226;47.858;9.594;2022-07-29T10:49:17;5.97;;;3.30;;
18200;SDS011;9226;47.858;9.594;2022-07-29T10:54:17;5.03;;;3.40;;
18200;SDS011;9226;47.858;9.594;2022-07-29T10:56:43;8.13;;;3.60;;
18200;SDS011;9226;47.858;9.594;2022-07-29T11:01:47;8.30;;;3.53;;
18200;SDS011;9226;47.858;9.594;2022-07-29T11:04:13;4.97;;;3.43;;
18200;SDS011;9226;47.858;9.594;2022-07-29T11:09:27;5.20;;;3.10;;
18200;SDS011;9226;47.858;9.594;2022-07-29T11:11:55;6.13;;;3.60;;
18200;SDS011;9226;47.858;9.594;2022-07-29T11:17:20;13.30;;;4.27;;
18200;SDS011;9226;47.858;9.594;2022-07-29T11:19:46;8.73;;;3.77;;
18200;SDS011;9226;47.858;9.594;2022-07-29T11:22:12;4.93;;;3.60;;
18200;SDS011;9226;47.858;9.594;2022-07-29T11:25:13;7.07;;;4.20;;
18200;SDS011;9226;47.858;9.594;2022-07-29T11:27:39;7.07;;;3.67;;
18200;SDS011;9226;47.858;9.594;2022-07-29T11:30:05;6.37;;;3.77;;
18200;SDS011;9226;47.858;9.594;2022-07-29T11:32:38;5.37;;;3.70;;
18200;SDS011;9226;47.858;9.594;2022-07-29T11:35:18;5.63;;;3.80;;
18200;SDS011;9226;47.858;9.594;2022-07-29T11:37:47;6.27;;;3.67;;
18200;SDS011;9226;47.858;9.594;2022-07-29T11:49:19;6.77;;;3.40;;
18200;SDS011;9226;47.858;9.594;2022-07-29T11:51:52;9.23;;;4.20;;
18200;SDS011;9226;47.858;9.594;2022-07-29T11:54:39;5.53;;;3.80;;
18200;SDS011;9226;47.858;9.594;2022-07-29T11:57:07;8.10;;;4.37;;
18200;SDS011;9226;47.858;9.594;2022-07-29T11:59:38;7.07;;;4.47;;
18200;SDS011;9226;47.858;9.594;2022-07-29T12:02:08;6.23;;;4.07;;
18200;SDS011;9226;47.858;9.594;2022-07-29T12:04:47;5.67;;;4.20;;
18200;SDS011;9226;47.858;9.594;2022-07-29T12:07:13;6.17;;;4.50;;
18200;SDS011;9226;47.858;9.594;2022-07-29T12:09:39;7.63;;;4.00;;
18200;SDS011;9226;47.858;9.594;2022-07-29T12:12:04;5.90;;;3.67;;
18200;SDS011;9226;47.858;9.594;2022-07-29T12:14:31;5.57;;;4.00;;
18200;SDS011;9226;47.858;9.594;2022-07-29T12:16:58;6.03;;;3.70;;
18200;SDS011;9226;47.858;9.594;2022-07-29T12:19:25;5.27;;;3.57;;
18200;SDS011;9226;47.858;9.594;2022-07-29T12:21:53;5.47;;;3.67;;
18200;SDS011;9226;47.858;9.594;2022-07-29T12:24:19;4.37;;;3.37;;
18200;SDS011;9226;47.858;9.594;2022-07-29T12:26:52;9.67;;;3.47;;
18200;SDS011;9226;47.858;9.594;2022-07-29T12:29:21;7.20;;;4.00;;
18200;SDS011;9226;47.858;9.594;2022-07-29T12:31:51;5.90;;;4.23;;
18200;SDS011;9226;47.858;9.594;2022-07-29T12:34:19;5.43;;;3.57;;
18200;SDS011;9226;47.858;9.594;2022-07-29T12:36:48;5.90;;;3.60;;
18200;SDS011;9226;47.858;9.594;2022-07-29T12:39:15;5.33;;;3.83;;
18200;SDS011;9226;47.858;9.594;2022-07-29T12:41:42;6.80;;;3.70;;
18200;SDS011;9226;47.858;9.594;2022-07-29T12:44:09;6.00;;;4.03;;
18200;SDS011;9226;47.858;9.594;2022-07-29T12:46:35;5.40;;;3.70;;
18200;SDS011;9226;47.858;9.594;2022-07-29T12:49:01;5.13;;;3.63;;
18200;SDS011;9226;47.858;9.594;2022-07-29T12:54:06;6.30;;;3.30;;
18200;SDS011;9226;47.858;9.594;2022-07-29T12:56:32;6.13;;;3.70;;
18200;SDS011;9226;47.858;9.594;2022-07-29T12:58:58;6.73;;;3.40;;
18200;SDS011;9226;47.858;9.594;2022-07-29T13:01:23;5.97;;;3.80;;
18200;SDS011;9226;47.858;9.594;2022-07-29T13:03:53;5.27;;;3.37;;
18200;SDS011;9226;47.858;9.594;2022-07-29T13:06:40;6.77;;;3.27;;
18200;SDS011;9226;47.858;9.594;2022-07-29T13:09:19;4.90;;;3.53;;
18200;SDS011;9226;47.858;9.594;2022-07-29T13:11:51;6.60;;;3.60;;
18200;SDS011;9226;47.858;9.594;2022-07-29T13:14:31;7.87;;;3.53;;
18200;SDS011;9226;47.858;9.594;2022-07-29T13:19:45;9.30;;;3.57;;
18200;SDS011;9226;47.858;9.594;2022-07-29T13:22:16;6.27;;;3.27;;
18200;SDS011;9226;47.858;9.594;2022-07-29T13:24:50;10.17;;;3.50;;
18200;SDS011;9226;47.858;9.594;2022-07-29T13:27:21;3.67;;;3.07;;
18200;SDS011;9226;47.858;9.594;2022-07-29T13:29:48;5.20;;;3.47;;
18200;SDS011;9226;47.858;9.594;2022-07-29T13:32:16;3.67;;;3.03;;
18200;SDS011;9226;47.858;9.594;2022-07-29T13:34:41;8.13;;;3.77;;
18200;SDS011;9226;47.858;9.594;2022-07-29T13:37:07;5.40;;;3.20;;
18200;SDS011;9226;47.858;9.594;2022-07-29T13:39:32;9.20;;;3.57;;
18200;SDS011;9226;47.858;9.594;2022-07-29T13:41:58;15.80;;;4.33;;
18200;SDS011;9226;47.858;9.594;2022-07-29T13:44:23;6.13;;;3.60;;
18200;SDS011;9226;47.858;9.594;2022-07-29T13:46:49;5.37;;;3.63;;
18200;SDS011;9226;47.858;9.594;2022-07-29T13:49:15;4.63;;;3.67;;
18200;SDS011;9226;47.858;9.594;2022-07-29T13:51:40;10.37;;;3.40;;
18200;SDS011;9226;47.858;9.594;2022-07-29T13:54:05;5.30;;;3.40;;
18200;SDS011;9226;47.858;9.594;2022-07-29T13:56:33;5.50;;;3.47;;
18200;SDS011;9226;47.858;9.594;2022-07-29T13:58:59;6.83;;;3.30;;
18200;SDS011;9226;47.858;9.594;2022-07-29T14:01:25;4.50;;;3.20;;
18200;SDS011;9226;47.858;9.594;2022-07-29T14:03:52;5.23;;;3.10;;
18200;SDS011;9226;47.858;9.594;2022-07-29T14:06:17;6.23;;;3.47;;
18200;SDS011;9226;47.858;9.594;2022-07-29T14:11:10;3.60;;;2.77;;
18200;SDS011;9226;47.858;9.594;2022-07-29T14:13:35;4.57;;;3.20;;
18200;SDS011;9226;47.858;9.594;2022-07-29T14:16:01;4.10;;;3.00;;
18200;SDS011;9226;47.858;9.594;2022-07-29T14:18:26;5.20;;;3.37;;
18200;SDS011;9226;47.858;9.594;2022-07-29T14:20:52;3.03;;;2.60;;
18200;SDS011;9226;47.858;9.594;2022-07-29T14:23:17;5.27;;;3.30;;
18200;SDS011;9226;47.858;9.594;2022-07-29T14:25:43;6.57;;;3.20;;
18200;SDS011;9226;47.858;9.594;2022-07-29T14:28:08;5.40;;;3.70;;
18200;SDS011;9226;47.858;9.594;2022-07-29T14:30:35;5.27;;;3.40;;
18200;SDS011;9226;47.858;9.594;2022-07-29T14:33:02;5.17;;;3.50;;
18200;SDS011;9226;47.858;9.594;2022-07-29T14:35:28;5.67;;;3.37;;
18200;SDS011;9226;47.858;9.594;2022-07-29T14:37:53;4.77;;;3.30;;
18200;SDS011;9226;47.858;9.594;2022-07-29T14:40:19;6.47;;;3.30;;
18200;SDS011;9226;47.858;9.594;2022-07-29T14:42:44;4.17;;;2.93;;
18200;SDS011;9226;47.858;9.594;2022-07-29T14:45:10;4.27;;;2.97;;
18200;SDS011;9226;47.858;9.594;2022-07-29T14:47:36;4.77;;;3.23;;
18200;SDS011;9226;47.858;9.594;2022-07-29T14:50:03;4.00;;;2.43;;
18200;SDS011;9226;47.858;9.594;2022-07-29T14:52:29;2.90;;;2.10;;
18200;SDS011;9226;47.858;9.594;2022-07-29T14:54:55;4.77;;;1.90;;
18200;SDS011;9226;47.858;9.594;2022-07-29T14:57:20;3.40;;;2.13;;
18200;SDS011;9226;47.858;9.594;2022-07-29T14:59:46;1.67;;;1.40;;
18200;SDS011;9226;47.858;9.594;2022-07-29T15:02:11;2.00;;;1.23;;
18200;SDS011;9226;47.858;9.594;2022-07-29T15:04:37;3.20;;;1.60;;
18200;SDS011;9226;47.858;9.594;2022-07-29T15:07:02;2.93;;;1.60;;
18200;SDS011;9226;47.858;9.594;2022-07-29T15:09:28;7.87;;;2.50;;
18200;SDS011;9226;47.858;9.594;2022-07-29T15:11:53;4.77;;;2.30;;
18200;SDS011;9226;47.858;9.594;2022-07-29T15:14:19;8.00;;;2.80;;
18200;SDS011;9226;47.858;9.594;2022-07-29T15:16:44;7.90;;;2.37;;
18200;SDS011;9226;47.858;9.594;2022-07-29T15:19:10;4.07;;;2.23;;
18200;SDS011;9226;47.858;9.594;2022-07-29T15:21:36;5.33;;;2.50;;
18200;SDS011;9226;47.858;9.594;2022-07-29T15:24:01;4.03;;;2.37;;
18200;SDS011;9226;47.858;9.594;2022-07-29T15:26:27;3.27;;;2.10;;
18200;SDS011;9226;47.858;9.594;2022-07-29T15:28:53;4.43;;;2.33;;
18200;SDS011;9226;47.858;9.594;2022-07-29T15:31:20;5.87;;;2.23;;
18200;SDS011;9226;47.858;9.594;2022-07-29T15:33:46;4.37;;;2.07;;
18200;SDS011;9226;47.858;9.594;2022-07-29T15:36:11;3.70;;;2.53;;
18200;SDS011;9226;47.858;9.594;2022-07-29T15:38:37;5.57;;;2.30;;
18200;SDS011;9226;47.858;9.594;2022-07-29T15:41:05;7.73;;;2.60;;
18200;SDS011;9226;47.858;9.594;2022-07-29T15:43:31;3.93;;;2.37;;
18200;SDS011;9226;47.858;9.594;2022-07-29T15:45:56;5.63;;;2.47;;
18200;SDS011;9226;47.858;9.594;2022-07-29T15:48:41;5.83;;;2.60;;
18200;SDS011;9226;47.858;9.594;2022-07-29T15:51:06;4.50;;;2.57;;
18200;SDS011;9226;47.858;9.594;2022-07-29T15:53:32;7.47;;;2.67;;
18200;SDS011;9226;47.858;9.594;2022-07-29T15:55:57;7.20;;;2.50;;
18200;SDS011;9226;47.858;9.594;2022-07-29T15:58:23;7.20;;;2.53;;
18200;SDS011;9226;47.858;9.594;2022-07-29T16:00:48;3.43;;;2.60;;
18200;SDS011;9226;47.858;9.594;2022-07-29T16:03:14;4.83;;;2.50;;
18200;SDS011;9226;47.858;9.594;2022-07-29T16:05:40;3.00;;;2.17;;
18200;SDS011;9226;47.858;9.594;2022-07-29T16:08:06;5.73;;;2.30;;
18200;SDS011;9226;47.858;9.594;2022-07-29T16:10:32;5.07;;;2.47;;
18200;SDS011;9226;47.858;9.594;2022-07-29T16:12:57;4.13;;;2.97;;
18200;SDS011;9226;47.858;9.594;2022-07-29T16:15:23;6.97;;;3.20;;
18200;SDS011;9226;47.858;9.594;2022-07-29T16:17:48;3.97;;;3.30;;
18200;SDS011;9226;47.858;9.594;2022-07-29T16:20:14;5.17;;;3.67;;
18200;SDS011;9226;47.858;9.594;2022-07-29T16:22:40;6.73;;;3.70;;
18200;SDS011;9226;47.858;9.594;2022-07-29T16:25:05;6.20;;;3.60;;
18200;SDS011;9226;47.858;9.594;2022-07-29T16:27:33;6.57;;;3.17;;
18200;SDS011;9226;47.858;9.594;2022-07-29T16:29:58;4.93;;;3.47;;
18200;SDS011;9226;47.858;9.594;2022-07-29T16:32:24;7.00;;;3.70;;
18200;SDS011;9226;47.858;9.594;2022-07-29T16:34:49;5.50;;;3.57;;
18200;SDS011;9226;47.858;9.594;2022-07-29T16:37:15;4.80;;;3.50;;
18200;SDS011;9226;47.858;9.594;2022-07-29T16:39:41;7.47;;;3.60;;
18200;SDS011;9226;47.858;9.594;2022-07-29T16:42:07;7.10;;;3.50;;
18200;SDS011;9226;47.858;9.594;2022-07-29T16:44:32;4.53;;;3.30;;
18200;SDS011;9226;47.858;9.594;2022-07-29T16:46:58;5.40;;;3.70;;
18200;SDS011;9226;47.858;9.594;2022-07-29T16:49:24;5.20;;;3.63;;
18200;SDS011;9226;47.858;9.594;2022-07-29T16:51:50;5.03;;;3.50;;
18200;SDS011;9226;47.858;9.594;2022-07-29T16:54:15;5.13;;;3.50;;
18200;SDS011;9226;47.858;9.594;2022-07-29T16:56:41;5.97;;;3.27;;
18200;SDS011;9226;47.858;9.594;2022-07-29T16:59:06;7.63;;;3.67;;
18200;SDS011;9226;47.858;9.594;2022-07-29T17:01:32;6.13;;;3.70;;
18200;SDS011;9226;47.858;9.594;2022-07-29T17:03:57;8.60;;;3.67;;
18200;SDS011;9226;47.858;9.594;2022-07-29T17:06:36;8.30;;;3.93;;
18200;SDS011;9226;47.858;9.594;2022-07-29T17:09:04;8.20;;;3.27;;
18200;SDS011;9226;47.858;9.594;2022-07-29T17:11:31;6.30;;;4.13;;
18200;SDS011;9226;47.858;9.594;2022-07-29T17:13:57;8.20;;;4.40;;
18200;SDS011;9226;47.858;9.594;2022-07-29T17:16:26;6.03;;;3.60;;
18200;SDS011;9226;47.858;9.594;2022-07-29T17:18:52;6.67;;;3.93;;
18200;SDS011;9226;47.858;9.594;2022-07-29T17:21:19;6.67;;;3.97;;
18200;SDS011;9226;47.858;9.594;2022-07-29T17:23:46;5.63;;;4.17;;
18200;SDS011;9226;47.858;9.594;2022-07-29T17:26:12;6.33;;;4.40;;
18200;SDS011;9226;47.858;9.594;2022-07-29T17:28:37;5.93;;;4.33;;
18200;SDS011;9226;47.858;9.594;2022-07-29T17:31:03;7.80;;;4.90;;
18200;SDS011;9226;47.858;9.594;2022-07-29T17:33:28;8.00;;;4.90;;
18200;SDS011;9226;47.858;9.594;2022-07-29T17:35:54;8.23;;;5.50;;
18200;SDS011;9226;47.858;9.594;2022-07-29T17:38:38;8.60;;;4.70;;
18200;SDS011;9226;47.858;9.594;2022-07-29T17:41:03;7.47;;;4.43;;
18200;SDS011;9226;47.858;9.594;2022-07-29T17:43:29;6.23;;;4.17;;
18200;SDS011;9226;47.858;9.594;2022-07-29T17:45:54;9.77;;;4.53;;
18200;SDS011;9226;47.858;9.594;2022-07-29T17:48:20;6.83;;;4.60;;
18200;SDS011;9226;47.858;9.594;2022-07-29T17:50:46;9.30;;;4.40;;
18200;SDS011;9226;47.858;9.594;2022-07-29T17:53:12;8.87;;;4.50;;
18200;SDS011;9226;47.858;9.594;2022-07-29T17:55:38;6.57;;;3.90;;
18200;SDS011;9226;47.858;9.594;2022-07-29T17:58:06;5.33;;;3.67;;
18200;SDS011;9226;47.858;9.594;2022-07-29T18:00:33;7.00;;;4.07;;
18200;SDS011;9226;47.858;9.594;2022-07-29T18:02:59;6.00;;;3.80;;
18200;SDS011;9226;47.858;9.594;2022-07-29T18:05:25;6.10;;;4.10;;
18200;SDS011;9226;47.858;9.594;2022-07-29T18:07:51;8.93;;;4.17;;
18200;SDS011;9226;47.858;9.594;2022-07-29T18:10:16;5.97;;;3.80;;
18200;SDS011;9226;47.858;9.594;2022-07-29T18:12:42;5.57;;;3.97;;
18200;SDS011;9226;47.858;9.594;2022-07-29T18:15:07;6.13;;;4.43;;
18200;SDS011;9226;47.858;9.594;2022-07-29T18:17:33;6.87;;;4.20;;
18200;SDS011;9226;47.858;9.594;2022-07-29T18:19:59;7.03;;;4.20;;
18200;SDS011;9226;47.858;9.594;2022-07-29T18:22:24;8.20;;;4.20;;
18200;SDS011;9226;47.858;9.594;2022-07-29T18:24:50;9.07;;;4.30;;
18200;SDS011;9226;47.858;9.594;2022-07-29T18:27:15;5.63;;;4.20;;
18200;SDS011;9226;47.858;9.594;2022-07-29T18:29:41;6.13;;;4.37;;
18200;SDS011;9226;47.858;9.594;2022-07-29T18:32:06;9.47;;;4.67;;
18200;SDS011;9226;47.858;9.594;2022-07-29T18:34:32;6.90;;;4.50;;
18200;SDS011;9226;47.858;9.594;2022-07-29T18:36:57;6.80;;;4.80;;
18200;SDS011;9226;47.858;9.594;2022-07-29T18:39:23;7.03;;;4.77;;
18200;SDS011;9226;47.858;9.594;2022-07-29T18:41:49;7.20;;;4.77;;
18200;SDS011;9226;47.858;9.594;2022-07-29T18:44:14;8.90;;;4.53;;
18200;SDS011;9226;47.858;9.594;2022-07-29T18:46:44;9.97;;;5.10;;
18200;SDS011;9226;47.858;9.594;2022-07-29T18:49:10;9.77;;;4.70;;
18200;SDS011;9226;47.858;9.594;2022-07-29T18:51:36;6.77;;;4.73;;
18200;SDS011;9226;47.858;9.594;2022-07-29T18:54:02;7.20;;;5.00;;
18200;SDS011;9226;47.858;9.594;2022-07-29T18:56:29;7.90;;;5.10;;
18200;SDS011;9226;47.858;9.594;2022-07-29T18:58:55;7.33;;;4.80;;
18200;SDS011;9226;47.858;9.594;2022-07-29T19:01:21;7.97;;;5.57;;
18200;SDS011;9226;47.858;9.594;2022-07-29T19:03:47;8.73;;;5.30;;
18200;SDS011;9226;47.858;9.594;2022-07-29T19:06:12;7.60;;;4.83;;
18200;SDS011;9226;47.858;9.594;2022-07-29T19:08:38;10.80;;;4.90;;
18200;SDS011;9226;47.858;9.594;2022-07-29T19:11:04;9.13;;;5.60;;
18200;SDS011;9226;47.858;9.594;2022-07-29T19:13:29;14.00;;;5.40;;
18200;SDS011;9226;47.858;9.594;2022-07-29T19:15:55;9.10;;;4.90;;
18200;SDS011;9226;47.858;9.594;2022-07-29T19:18:20;9.20;;;5.10;;
18200;SDS011;9226;47.858;9.594;2022-07-29T19:20:46;8.50;;;5.20;;
18200;SDS011;9226;47.858;9.594;2022-07-29T19:23:11;7.03;;;5.13;;
18200;SDS011;9226;47.858;9.594;2022-07-29T19:25:37;9.40;;;5.67;;
18200;SDS011;9226;47.858;9.594;2022-07-29T19:28:03;9.13;;;5.87;;
18200;SDS011;9226;47.858;9.594;2022-07-29T19:30:28;10.20;;;5.87;;
18200;SDS011;9226;47.858;9.594;2022-07-29T19:32:54;10.27;;;5.63;;
18200;SDS011;9226;47.858;9.594;2022-07-29T19:35:19;12.63;;;5.83;;
18200;SDS011;9226;47.858;9.594;2022-07-29T19:37:48;16.10;;;6.13;;
18200;SDS011;9226;47.858;9.594;2022-07-29T19:40:13;9.47;;;6.03;;
18200;SDS011;9226;47.858;9.594;2022-07-29T19:42:40;7.27;;;5.00;;
18200;SDS011;9226;47.858;9.594;2022-07-29T19:45:06;9.27;;;6.00;;
18200;SDS011;9226;47.858;9.594;2022-07-29T19:47:32;9.17;;;6.23;;
18200;SDS011;9226;47.858;9.594;2022-07-29T19:49:57;9.53;;;6.03;;
18200;SDS011;9226;47.858;9.594;2022-07-29T19:52:24;9.50;;;5.47;;
18200;SDS011;9226;47.858;9.594;2022-07-29T19:54:50;11.67;;;5.63;;
18200;SDS011;9226;47.858;9.594;2022-07-29T19:57:15;10.73;;;6.40;;
18200;SDS011;9226;47.858;9.594;2022-07-29T19:59:41;7.33;;;5.30;;
18200;SDS011;9226;47.858;9.594;2022-07-29T20:02:07;13.47;;;6.17;;
18200;SDS011;9226;47.858;9.594;2022-07-29T20:04:35;11.60;;;6.23;;
18200;SDS011;9226;47.858;9.594;2022-07-29T20:07:01;10.40;;;6.27;;
18200;SDS011;9226;47.858;9.594;2022-07-29T20:09:26;10.07;;;5.70;;
18200;SDS011;9226;47.858;9.594;2022-07-29T20:11:52;9.10;;;5.80;;
18200;SDS011;9226;47.858;9.594;2022-07-29T20:14:18;7.17;;;4.97;;
18200;SDS011;9226;47.858;9.594;2022-07-29T20:16:43;7.87;;;5.43;;
18200;SDS011;9226;47.858;9.594;2022-07-29T20:19:09;9.87;;;4.97;;
18200;SDS011;9226;47.858;9.594;2022-07-29T20:21:35;8.07;;;5.83;;
18200;SDS011;9226;47.858;9.594;2022-07-29T20:24:02;8.43;;;4.90;;
18200;SDS011;9226;47.858;9.594;2022-07-29T20:26:29;10.00;;;5.27;;
18200;SDS011;9226;47.858;9.594;2022-07-29T20:28:55;10.97;;;5.40;;
18200;SDS011;9226;47.858;9.594;2022-07-29T20:31:21;9.33;;;4.97;;
18200;SDS011;9226;47.858;9.594;2022-07-29T20:33:47;7.03;;;4.77;;
18200;SDS011;9226;47.858;9.594;2022-07-29T20:36:12;7.07;;;4.90;;
18200;SDS011;9226;47.858;9.594;2022-07-29T20:38:38;10.53;;;4.50;;
18200;SDS011;9226;47.858;9.594;2022-07-29T20:41:04;6.10;;;4.17;;
18200;SDS011;9226;47.858;9.594;2022-07-29T20:43:30;6.67;;;4.00;;
18200;SDS011;9226;47.858;9.594;2022-07-29T20:45:55;6.73;;;4.60;;
18200;SDS011;9226;47.858;9.594;2022-07-29T20:48:21;6.47;;;4.37;;
18200;SDS011;9226;47.858;9.594;2022-07-29T20:50:46;6.50;;;4.30;;
18200;SDS011;9226;47.858;9.594;2022-07-29T20:53:13;9.37;;;5.00;;
18200;SDS011;9226;47.858;9.594;2022-07-29T20:55:40;8.63;;;4.63;;
18200;SDS011;9226;47.858;9.594;2022-07-29T20:58:06;6.00;;;4.53;;
18200;SDS011;9226;47.858;9.594;2022-07-29T21:00:32;8.23;;;5.20;;
18200;SDS011;9226;47.858;9.594;2022-07-29T21:02:58;10.47;;;5.20;;
18200;SDS011;9226;47.858;9.594;2022-07-29T21:05:23;8.80;;;5.10;;
18200;SDS011;9226;47.858;9.594;2022-07-29T21:07:49;10.33;;;5.87;;
18200;SDS011;9226;47.858;9.594;2022-07-29T21:10:15;8.20;;;4.93;;
18200;SDS011;9226;47.858;9.594;2022-07-29T21:12:42;8.13;;;4.47;;
18200;SDS011;9226;47.858;9.594;2022-07-29T21:15:10;9.77;;;5.10;;
18200;SDS011;9226;47.858;9.594;2022-07-29T21:17:39;11.83;;;4.70;;
18200;SDS011;9226;47.858;9.594;2022-07-29T21:20:10;6.27;;;4.67;;
18200;SDS011;9226;47.858;9.594;2022-07-29T21:22:40;7.00;;;4.60;;
18200;SDS011;9226;47.858;9.594;2022-07-29T21:25:06;9.93;;;3.97;;
18200;SDS011;9226;47.858;9.594;2022-07-29T21:27:32;8.33;;;4.13;;
18200;SDS011;9226;47.858;9.594;2022-07-29T21:30:16;6.57;;;4.07;;
18200;SDS011;9226;47.858;9.594;2022-07-29T21:32:42;6.53;;;4.43;;
18200;SDS011;9226;47.858;9.594;2022-07-29T21:35:08;6.03;;;4.07;;
18200;SDS011;9226;47.858;9.594;2022-07-29T21:37:35;9.27;;;4.43;;
18200;SDS011;9226;47.858;9.594;2022-07-29T21:40:01;7.33;;;4.17;;
18200;SDS011;9226;47.858;9.594;2022-07-29T21:42:26;5.40;;;3.60;;
18200;SDS011;9226;47.858;9.594;2022-07-29T21:44:52;6.17;;;4.43;;
18200;SDS011;9226;47.858;9.594;2022-07-29T21:47:17;9.30;;;4.57;;
18200;SDS011;9226;47.858;9.594;2022-07-29T21:49:43;7.93;;;4.47;;
18200;SDS011;9226;47.858;9.594;2022-07-29T21:52:10;5.47;;;4.10;;
18200;SDS011;9226;47.858;9.594;2022-07-29T21:54:36;6.53;;;4.10;;
18200;SDS011;9226;47.858;9.594;2022-07-29T21:57:01;10.10;;;4.50;;
18200;SDS011;9226;47.858;9.594;2022-07-29T21:59:27;7.00;;;4.50;;
18200;SDS011;9226;47.858;9.594;2022-07-29T22:01:52;7.03;;;4.77;;
18200;SDS011;9226;47.858;9.594;2022-07-29T22:04:18;8.90;;;4.63;;
18200;SDS011;9226;47.858;9.594;2022-07-29T22:06:43;5.83;;;4.07;;
18200;SDS011;9226;47.858;9.594;2022-07-29T22:09:08;7.00;;;5.00;;
18200;SDS011;9226;47.858;9.594;2022-07-29T22:11:34;8.00;;;4.83;;
18200;SDS011;9226;47.858;9.594;2022-07-29T22:14:01;7.70;;;5.10;;
18200;SDS011;9226;47.858;9.594;2022-07-29T22:16:27;12.53;;;5.13;;
18200;SDS011;9226;47.858;9.594;2022-07-29T22:18:52;7.90;;;4.80;;
18200;SDS011;9226;47.858;9.594;2022-07-29T22:21:18;13.80;;;5.23;;
18200;SDS011;9226;47.858;9.594;2022-07-29T22:23:43;10.53;;;5.27;;
18200;SDS011;9226;47.858;9.594;2022-07-29T22:26:09;8.67;;;5.23;;
18200;SDS011;9226;47.858;9.594;2022-07-29T22:28:35;9.70;;;5.77;;
18200;SDS011;9226;47.858;9.594;2022-07-29T22:31:00;11.00;;;5.50;;
18200;SDS011;9226;47.858;9.594;2022-07-29T22:33:26;8.50;;;5.10;;
18200;SDS011;9226;47.858;9.594;2022-07-29T22:35:52;9.37;;;5.53;;
18200;SDS011;9226;47.858;9.594;2022-07-29T22:38:18;9.80;;;5.80;;
18200;SDS011;9226;47.858;9.594;2022-07-29T22:40:44;9.00;;;5.67;;
18200;SDS011;9226;47.858;9.594;2022-07-29T22:43:11;11.13;;;5.97;;
18200;SDS011;9226;47.858;9.594;2022-07-29T22:45:37;12.07;;;5.57;;
18200;SDS011;9226;47.858;9.594;2022-07-29T22:48:02;10.03;;;5.87;;
18200;SDS011;9226;47.858;9.594;2022-07-29T22:50:29;8.57;;;5.40;;
18200;SDS011;9226;47.858;9.594;2022-07-29T22:52:54;10.73;;;5.87;;
18200;SDS011;9226;47.858;9.594;2022-07-29T22:55:20;11.40;;;5.97;;
18200;SDS011;9226;47.858;9.594;2022-07-29T22:57:45;9.77;;;6.47;;
18200;SDS011;9226;47.858;9.594;2022-07-29T23:00:11;9.03;;;5.47;;
18200;SDS011;9226;47.858;9.594;2022-07-29T23:02:37;8.97;;;5.77;;
18200;SDS011;9226;47.858;9.594;2022-07-29T23:05:04;10.97;;;5.87;;
18200;SDS011;9226;47.858;9.594;2022-07-29T23:07:30;11.53;;;5.10;;
18200;SDS011;9226;47.858;9.594;2022-07-29T23:09:55;7.87;;;5.27;;
18200;SDS011;9226;47.858;9.594;2022-07-29T23:12:21;7.57;;;4.70;;
18200;SDS011;9226;47.858;9.594;2022-07-29T23:14:46;7.90;;;4.77;;
18200;SDS011;9226;47.858;9.594;2022-07-29T23:17:12;12.20;;;5.27;;
18200;SDS011;9226;47.858;9.594;2022-07-29T23:19:37;8.20;;;5.07;;
18200;SDS011;9226;47.858;9.594;2022-07-29T23:22:02;8.67;;;5.20;;
18200;SDS011;9226;47.858;9.594;2022-07-29T23:24:28;8.23;;;5.10;;
18200;SDS011;9226;47.858;9.594;2022-07-29T23:26:53;8.57;;;5.67;;
18200;SDS011;9226;47.858;9.594;2022-07-29T23:29:19;8.27;;;5.70;;